Time;durP1;ratioP1;P1;durP2;ratioP2;P2;SDS_P1;SDS_P2;PMS_P1;PMS_P2;Temp;Humidity;BMP_temperature;BMP_pressure;BME280_temperature;BME280_humidity;BME280_pressure;Samples;Min_cycle;Max_cycle;Signal;HPM_P1;HPM_P2
2022/10/31 00:00:28;;;;;;;5.70;2.58;;;13.30;99.90;;;;;;5039542;28;20094;-73
2022/10/31 00:02:54;;;;;;;9.32;3.17;;;13.30;99.90;;;;;;5041898;28;20040;-73
2022/10/31 00:05:19;;;;;;;7.57;2.83;;;13.30;99.90;;;;;;5042861;28;20039;-73
2022/10/31 00:07:45;;;;;;;8.20;3.50;;;13.30;99.90;;;;;;5041237;28;20040;-73
2022/10/31 00:10:10;;;;;;;6.97;2.60;;;13.30;99.90;;;;;;5039540;28;20044;-73
2022/10/31 00:12:36;;;;;;;4.97;2.40;;;13.30;99.90;;;;;;5040473;28;20045;-73
2022/10/31 00:15:02;;;;;;;5.30;2.42;;;13.30;99.90;;;;;;5041581;28;21366;-73
2022/10/31 00:17:27;;;;;;;7.10;2.70;;;13.30;99.90;;;;;;5024324;28;20044;-73
2022/10/31 00:19:53;;;;;;;7.72;2.80;;;13.20;99.90;;;;;;5038567;28;20060;-73
2022/10/31 00:22:18;;;;;;;4.97;2.97;;;13.20;99.90;;;;;;5040057;28;20064;-73
2022/10/31 00:24:44;;;;;;;7.03;2.70;;;13.20;99.90;;;;;;5041985;28;20033;-73
2022/10/31 00:27:10;;;;;;;5.28;2.67;;;13.10;99.90;;;;;;5040920;28;20048;-73
2022/10/31 00:29:36;;;;;;;5.35;3.45;;;13.20;99.90;;;;;;5037296;28;20045;-73
2022/10/31 00:32:01;;;;;;;6.10;2.70;;;13.10;99.90;;;;;;5040998;28;20036;-73
2022/10/31 00:34:27;;;;;;;6.13;2.78;;;13.20;99.90;;;;;;5042055;28;20056;-73
2022/10/31 00:36:52;;;;;;;8.23;3.20;;;13.20;99.90;;;;;;5044585;28;20041;-73
2022/10/31 00:39:18;;;;;;;11.13;2.72;;;13.20;99.90;;;;;;5026274;28;20095;-73
2022/10/31 00:41:43;;;;;;;7.72;2.65;;;13.10;99.90;;;;;;5043953;28;20033;-73
2022/10/31 00:44:09;;;;;;;6.70;3.13;;;13.10;99.90;;;;;;5024410;28;21205;-73
2022/10/31 00:46:35;;;;;;;5.30;2.40;;;13.00;99.90;;;;;;5045652;28;20119;-73
2022/10/31 00:49:00;;;;;;;5.72;2.90;;;13.00;99.90;;;;;;5044230;28;20076;-73
2022/10/31 00:51:26;;;;;;;11.43;4.40;;;13.00;99.90;;;;;;5043944;28;20041;-73
2022/10/31 00:53:52;;;;;;;8.13;2.60;;;13.00;99.90;;;;;;5044491;28;20663;-73
2022/10/31 00:56:17;;;;;;;16.48;3.45;;;13.00;99.90;;;;;;5028785;28;20048;-73
2022/10/31 00:58:43;;;;;;;7.03;3.65;;;13.00;99.90;;;;;;5045705;28;20040;-73
2022/10/31 01:01:09;;;;;;;7.07;3.30;;;13.00;99.90;;;;;;5045381;28;20059;-73
2022/10/31 01:03:35;;;;;;;8.82;3.33;;;13.00;99.90;;;;;;5044682;28;20079;-73
2022/10/31 01:06:04;;;;;;;10.20;3.58;;;13.00;99.90;;;;;;5045682;28;20069;-73
2022/10/31 01:08:29;;;;;;;7.07;3.28;;;13.00;99.90;;;;;;5025839;28;20037;-73
2022/10/31 01:11:17;;;;;;;6.13;2.95;;;13.00;99.90;;;;;;5042838;28;20040;-73
2022/10/31 01:13:43;;;;;;;5.75;2.72;;;12.90;99.90;;;;;;5039985;28;20044;-73
2022/10/31 01:16:12;;;;;;;6.15;3.42;;;12.90;99.90;;;;;;5042731;28;20700;-73
2022/10/31 01:18:38;;;;;;;10.02;4.18;;;12.90;99.90;;;;;;5044578;28;20800;-73
2022/10/31 01:21:15;;;;;;;7.07;3.10;;;12.90;99.90;;;;;;5022852;28;20586;-73
2022/10/31 01:23:41;;;;;;;7.57;3.72;;;12.80;99.90;;;;;;5061048;28;20130;-73
2022/10/31 01:26:10;;;;;;;5.45;3.25;;;12.80;99.90;;;;;;5045784;28;20041;-73
2022/10/31 01:28:38;;;;;;;6.65;3.15;;;12.80;99.90;;;;;;5044456;28;20521;-73
2022/10/31 01:31:08;;;;;;;5.88;2.75;;;12.70;99.90;;;;;;5042996;28;20040;-73
2022/10/31 01:33:35;;;;;;;7.13;2.70;;;12.70;99.90;;;;;;5044587;28;20502;-73
2022/10/31 01:36:10;;;;;;;5.60;2.90;;;12.80;99.90;;;;;;5043660;28;20040;-73
2022/10/31 01:38:36;;;;;;;12.13;3.55;;;12.70;99.90;;;;;;5026528;28;20156;-73
2022/10/31 01:41:02;;;;;;;7.10;3.05;;;12.70;99.90;;;;;;5039530;28;20098;-73
2022/10/31 01:43:47;;;;;;;6.75;3.70;;;12.80;99.90;;;;;;5039936;28;20048;-73
2022/10/31 01:46:13;;;;;;;7.53;3.42;;;12.70;99.90;;;;;;5042597;28;20041;-73
2022/10/31 01:48:40;;;;;;;11.13;3.58;;;12.70;99.90;;;;;;5044099;28;20289;-73
2022/10/31 01:51:07;;;;;;;6.90;3.33;;;12.70;99.90;;;;;;5043779;28;20056;-73
2022/10/31 01:53:34;;;;;;;7.60;3.85;;;12.70;99.90;;;;;;5025786;28;20375;-73
2022/10/31 01:56:00;;;;;;;6.70;3.25;;;12.70;99.90;;;;;;5042813;28;20128;-73
2022/10/31 01:58:30;;;;;;;7.63;3.05;;;12.70;99.90;;;;;;5044986;28;20127;-73
2022/10/31 02:00:58;;;;;;;6.75;3.25;;;12.70;99.90;;;;;;5042489;28;20072;-73
2022/10/31 02:03:25;;;;;;;9.77;3.42;;;12.70;99.90;;;;;;5042636;28;20033;-73
2022/10/31 02:05:53;;;;;;;8.60;3.40;;;12.70;99.90;;;;;;5043409;28;20033;-73
2022/10/31 02:08:25;;;;;;;6.05;3.20;;;12.70;99.90;;;;;;5043979;28;20045;-73
2022/10/31 02:10:50;;;;;;;7.95;3.22;;;12.60;99.90;;;;;;5043026;28;20045;-73
2022/10/31 02:13:16;;;;;;;8.60;3.25;;;12.60;99.90;;;;;;5045859;28;20045;-73
2022/10/31 02:15:44;;;;;;;8.88;3.80;;;12.60;99.90;;;;;;5043175;28;20063;-73
2022/10/31 02:18:10;;;;;;;6.40;3.03;;;12.50;99.90;;;;;;5043117;28;20055;-73
2022/10/31 02:20:47;;;;;;;7.78;3.05;;;12.50;99.90;;;;;;5042613;28;20037;-73
2022/10/31 02:23:51;;;;;;;8.32;3.95;;;12.50;99.90;;;;;;5042613;28;20052;-73
2022/10/31 02:26:42;;;;;;;5.30;3.08;;;12.50;99.90;;;;;;5040165;28;20045;-73
2022/10/31 02:29:45;;;;;;;8.23;3.63;;;12.50;99.90;;;;;;5040454;28;20044;-73
2022/10/31 02:32:31;;;;;;;7.03;2.95;;;12.50;99.90;;;;;;5025004;28;20044;-73
2022/10/31 02:35:02;;;;;;;8.00;2.90;;;12.40;99.90;;;;;;5042846;28;20065;-73
2022/10/31 02:37:31;;;;;;;6.30;2.42;;;12.50;99.90;;;;;;5042664;28;20243;-73
2022/10/31 02:40:13;;;;;;;8.43;3.83;;;12.50;99.90;;;;;;5037971;28;20037;-73
2022/10/31 02:42:54;;;;;;;7.07;3.38;;;12.40;99.90;;;;;;5025692;28;20507;-73
2022/10/31 02:45:29;;;;;;;5.20;2.65;;;12.50;99.90;;;;;;5040897;28;20120;-73
2022/10/31 02:48:00;;;;;;;8.90;3.13;;;12.40;99.90;;;;;;5027498;28;20498;-73
2022/10/31 02:50:34;;;;;;;8.85;3.05;;;12.40;99.90;;;;;;5045262;28;20086;-73
2022/10/31 02:53:01;;;;;;;6.18;3.17;;;12.40;99.90;;;;;;5043028;28;20572;-73
2022/10/31 02:55:27;;;;;;;7.00;3.20;;;12.40;99.90;;;;;;5042792;28;20049;-73
2022/10/31 02:58:07;;;;;;;6.35;2.90;;;12.40;99.90;;;;;;5043921;28;20059;-73
2022/10/31 03:00:42;;;;;;;5.28;2.53;;;12.40;99.90;;;;;;5041279;28;20044;-73
2022/10/31 03:03:24;;;;;;;7.68;3.95;;;12.40;99.90;;;;;;5042094;28;20581;-73
2022/10/31 03:06:06;;;;;;;6.85;3.13;;;12.40;99.90;;;;;;5043133;28;20037;-73
2022/10/31 03:08:58;;;;;;;7.32;3.10;;;12.40;99.90;;;;;;5041573;28;20036;-73
2022/10/31 03:11:31;;;;;;;5.88;2.70;;;12.40;99.90;;;;;;5075301;28;20041;-73
2022/10/31 03:14:09;;;;;;;5.18;2.78;;;12.30;99.90;;;;;;5024578;28;20049;-73
2022/10/31 03:16:48;;;;;;;7.43;3.47;;;12.30;99.90;;;;;;5039019;28;20080;-73
2022/10/31 03:19:22;;;;;;;14.68;3.10;;;12.40;99.90;;;;;;5042525;28;20045;-73
2022/10/31 03:22:02;;;;;;;6.60;2.95;;;12.30;99.90;;;;;;5026580;28;20032;-73
2022/10/31 03:24:35;;;;;;;5.15;2.85;;;12.40;99.90;;;;;;5034076;28;21667;-73
2022/10/31 03:27:01;;;;;;;6.13;2.80;;;12.30;99.90;;;;;;5040486;28;20043;-73
2022/10/31 03:29:32;;;;;;;6.28;2.95;;;12.30;99.90;;;;;;5041813;28;20041;-73
2022/10/31 03:32:05;;;;;;;6.63;2.88;;;12.20;99.90;;;;;;5025046;28;20041;-73
2022/10/31 03:34:31;;;;;;;8.00;3.53;;;12.20;99.90;;;;;;5042707;28;20494;-73
2022/10/31 03:37:00;;;;;;;6.50;3.20;;;12.20;99.90;;;;;;5023101;28;20037;-73
2022/10/31 03:39:27;;;;;;;6.68;3.30;;;12.20;99.90;;;;;;5023123;28;20060;-73
2022/10/31 03:42:02;;;;;;;6.35;3.15;;;12.20;99.90;;;;;;5041134;28;20055;-73
2022/10/31 03:44:30;;;;;;;6.80;3.13;;;12.20;99.90;;;;;;5041261;28;20102;-73
2022/10/31 03:46:57;;;;;;;7.53;3.60;;;12.20;99.90;;;;;;5025674;28;20049;-73
2022/10/31 03:49:23;;;;;;;5.15;2.95;;;12.10;99.90;;;;;;5040420;28;20044;-73
2022/10/31 03:52:15;;;;;;;8.82;3.33;;;12.10;99.90;;;;;;5041996;28;20041;-73
2022/10/31 03:54:47;;;;;;;9.23;3.63;;;12.10;99.90;;;;;;5040526;28;20029;-73
2022/10/31 03:57:29;;;;;;;5.20;3.15;;;12.00;99.90;;;;;;5025737;28;20049;-73
2022/10/31 04:00:01;;;;;;;5.82;3.40;;;12.00;99.90;;;;;;5038993;28;20041;-73
2022/10/31 04:02:32;;;;;;;9.48;3.05;;;12.00;99.90;;;;;;5025842;28;20040;-73
2022/10/31 04:04:59;;;;;;;7.28;3.35;;;12.00;99.90;;;;;;5024901;28;20075;-73
2022/10/31 04:07:30;;;;;;;7.03;3.35;;;11.90;99.90;;;;;;5024271;28;20395;-73
2022/10/31 04:09:57;;;;;;;6.35;3.20;;;11.90;99.90;;;;;;5040578;28;20045;-73
2022/10/31 04:12:25;;;;;;;7.50;3.03;;;11.90;99.90;;;;;;5028341;28;20040;-73
2022/10/31 04:14:52;;;;;;;4.97;2.67;;;11.90;99.90;;;;;;5045043;28;20061;-73
2022/10/31 04:17:21;;;;;;;9.55;3.15;;;11.80;99.90;;;;;;5029242;28;20044;-73
2022/10/31 04:19:47;;;;;;;10.25;3.45;;;11.90;99.90;;;;;;5027693;28;20082;-73
2022/10/31 04:22:13;;;;;;;5.95;2.92;;;11.80;99.90;;;;;;5031305;28;20044;-73
2022/10/31 04:24:40;;;;;;;7.80;3.50;;;11.80;99.90;;;;;;5044126;28;20029;-73
2022/10/31 04:27:06;;;;;;;5.32;2.72;;;11.80;99.90;;;;;;5041878;28;20029;-73
2022/10/31 04:29:31;;;;;;;5.03;2.60;;;11.70;99.90;;;;;;5043894;28;20041;-73
2022/10/31 04:31:57;;;;;;;6.20;3.15;;;11.70;99.90;;;;;;5045102;28;20482;-73
2022/10/31 04:34:22;;;;;;;8.23;2.80;;;11.60;99.90;;;;;;5042441;28;20037;-73
2022/10/31 04:36:48;;;;;;;6.00;2.85;;;11.60;99.90;;;;;;5045273;28;20045;-73
2022/10/31 04:39:13;;;;;;;4.75;2.83;;;11.60;99.90;;;;;;5043252;28;20073;-73
2022/10/31 04:41:39;;;;;;;6.47;2.70;;;11.60;99.90;;;;;;5045340;28;20040;-73
2022/10/31 04:44:05;;;;;;;8.23;4.38;;;11.60;99.90;;;;;;5045966;28;20079;-73
2022/10/31 04:46:30;;;;;;;4.63;3.17;;;11.60;99.90;;;;;;5028288;28;20041;-73
2022/10/31 04:48:56;;;;;;;5.32;2.60;;;11.60;99.90;;;;;;5043751;28;20037;-73
2022/10/31 04:51:22;;;;;;;4.78;2.75;;;11.60;99.90;;;;;;5042979;28;20037;-73
2022/10/31 04:53:47;;;;;;;4.47;2.63;;;11.60;99.90;;;;;;5027089;28;20033;-73
2022/10/31 04:56:13;;;;;;;5.78;2.67;;;11.60;99.90;;;;;;5040147;28;20044;-73
2022/10/31 04:58:39;;;;;;;5.80;3.28;;;11.50;99.90;;;;;;5044314;28;20033;-73
2022/10/31 05:01:04;;;;;;;4.47;2.10;;;11.50;99.90;;;;;;5027901;28;20429;-73
2022/10/31 05:03:30;;;;;;;6.32;2.97;;;11.40;99.90;;;;;;5045320;28;20410;-73
2022/10/31 05:05:55;;;;;;;5.82;2.70;;;11.40;99.90;;;;;;5062065;28;20556;-73
2022/10/31 05:08:21;;;;;;;5.43;3.28;;;11.40;99.90;;;;;;5027651;28;20041;-73
2022/10/31 05:10:47;;;;;;;6.18;3.35;;;11.40;99.90;;;;;;5041655;28;20037;-73
2022/10/31 05:13:14;;;;;;;5.25;2.90;;;11.50;99.90;;;;;;5040541;28;20056;-73
2022/10/31 05:15:40;;;;;;;6.88;3.40;;;11.40;99.90;;;;;;5043873;28;20085;-73
2022/10/31 05:18:05;;;;;;;6.63;2.92;;;11.50;99.90;;;;;;5045761;28;20109;-73
2022/10/31 05:20:31;;;;;;;5.00;2.65;;;11.50;99.90;;;;;;5044822;28;20075;-73
2022/10/31 05:22:58;;;;;;;6.20;3.00;;;11.40;99.90;;;;;;5043404;28;20486;-73
2022/10/31 05:25:26;;;;;;;8.40;3.55;;;11.40;99.90;;;;;;5045086;28;20550;-73
2022/10/31 05:27:53;;;;;;;7.07;3.35;;;11.30;99.90;;;;;;5040658;28;20137;-73
2022/10/31 05:30:21;;;;;;;5.88;3.15;;;11.30;99.90;;;;;;5045739;28;20045;-73
2022/10/31 05:32:49;;;;;;;8.68;3.80;;;11.30;99.90;;;;;;5044670;28;20044;-73
2022/10/31 05:35:18;;;;;;;6.05;2.83;;;11.30;99.90;;;;;;5046919;28;20049;-73
2022/10/31 05:37:44;;;;;;;4.03;2.38;;;11.30;99.90;;;;;;5040345;28;20043;-73
2022/10/31 05:40:12;;;;;;;4.28;2.17;;;11.20;99.90;;;;;;5044252;28;20399;-74
2022/10/31 05:42:42;;;;;;;6.78;2.92;;;11.30;99.90;;;;;;5044475;28;20111;-74
2022/10/31 05:45:09;;;;;;;6.82;2.75;;;11.20;99.90;;;;;;5040368;28;20086;-73
2022/10/31 05:47:34;;;;;;;6.65;2.90;;;11.10;99.90;;;;;;5041697;28;20036;-73
2022/10/31 05:50:00;;;;;;;6.03;2.97;;;11.10;99.90;;;;;;5044797;28;20040;-73
2022/10/31 05:52:25;;;;;;;5.28;2.33;;;11.10;99.90;;;;;;5044268;28;20048;-73
2022/10/31 05:54:51;;;;;;;5.45;2.67;;;11.00;99.90;;;;;;5043903;28;20041;-73
2022/10/31 05:57:17;;;;;;;4.63;2.65;;;11.00;99.90;;;;;;5039476;28;20071;-73
2022/10/31 05:59:42;;;;;;;7.47;3.22;;;11.00;99.90;;;;;;5045740;28;20486;-73
2022/10/31 06:02:08;;;;;;;4.72;2.53;;;10.90;99.90;;;;;;5042820;28;20060;-73
2022/10/31 06:04:33;;;;;;;5.88;3.25;;;11.00;99.90;;;;;;5026979;28;20037;-73
2022/10/31 06:06:59;;;;;;;5.35;3.20;;;11.00;99.90;;;;;;5042899;28;20044;-73
2022/10/31 06:09:25;;;;;;;7.68;3.10;;;11.00;99.90;;;;;;5040085;28;20740;-73
2022/10/31 06:11:50;;;;;;;8.65;3.50;;;11.00;99.90;;;;;;5025431;28;20076;-73
2022/10/31 06:14:16;;;;;;;8.57;3.20;;;11.10;99.90;;;;;;5043544;28;20036;-73
2022/10/31 06:16:41;;;;;;;6.05;3.83;;;11.10;99.90;;;;;;5027556;28;20037;-73
2022/10/31 06:19:07;;;;;;;7.10;3.50;;;11.10;99.90;;;;;;5041590;28;20095;-73
2022/10/31 06:21:32;;;;;;;9.20;3.70;;;11.20;99.90;;;;;;5042676;28;20045;-73
2022/10/31 06:23:58;;;;;;;5.75;2.85;;;11.20;99.90;;;;;;5026818;28;20075;-73
2022/10/31 06:26:24;;;;;;;11.00;4.35;;;11.20;99.90;;;;;;5026924;28;20411;-73
2022/10/31 06:28:49;;;;;;;6.13;3.28;;;11.10;99.90;;;;;;5042998;28;20047;-73
2022/10/31 06:31:15;;;;;;;5.03;2.85;;;11.10;99.90;;;;;;5042958;28;20071;-72
2022/10/31 06:33:42;;;;;;;5.32;3.42;;;11.10;99.90;;;;;;5039183;28;20033;-73
2022/10/31 06:36:08;;;;;;;6.40;3.35;;;11.10;99.90;;;;;;5027107;28;20041;-72
2022/10/31 06:38:33;;;;;;;7.70;3.40;;;11.10;99.90;;;;;;5041528;28;20033;-71
2022/10/31 06:41:03;;;;;;;4.68;3.20;;;11.10;99.90;;;;;;5043975;28;20372;-72
2022/10/31 06:43:29;;;;;;;6.93;3.35;;;11.10;99.90;;;;;;5041967;28;20072;-73
2022/10/31 06:45:55;;;;;;;5.20;3.00;;;11.10;99.90;;;;;;5042489;28;20080;-73
2022/10/31 06:48:21;;;;;;;6.13;3.53;;;11.10;99.90;;;;;;5041365;28;20151;-73
2022/10/31 06:50:46;;;;;;;5.70;3.10;;;11.10;99.90;;;;;;5045227;28;20049;-73
2022/10/31 06:53:14;;;;;;;6.10;2.60;;;11.00;99.90;;;;;;5041586;28;20573;-73
2022/10/31 06:55:40;;;;;;;6.07;2.60;;;11.00;99.90;;;;;;5063942;28;20051;-73
2022/10/31 06:58:06;;;;;;;7.20;3.78;;;11.00;99.90;;;;;;5045174;28;20029;-73
2022/10/31 07:00:32;;;;;;;4.85;3.17;;;11.10;99.90;;;;;;5047333;28;20049;-73
2022/10/31 07:03:03;;;;;;;5.28;2.50;;;11.10;99.90;;;;;;5042069;28;20576;-73
2022/10/31 07:05:29;;;;;;;5.65;3.20;;;11.10;99.90;;;;;;5041690;28;20052;-73
2022/10/31 07:07:56;;;;;;;4.78;2.78;;;11.10;99.90;;;;;;5039266;28;20063;-73
2022/10/31 07:10:23;;;;;;;5.32;2.90;;;11.10;99.90;;;;;;5026897;28;20483;-74
2022/10/31 07:12:54;;;;;;;4.47;3.03;;;11.10;99.90;;;;;;5041232;28;20538;-73
2022/10/31 07:15:20;;;;;;;4.50;2.50;;;11.00;99.90;;;;;;5026248;28;20092;-73
2022/10/31 07:17:45;;;;;;;5.85;3.17;;;11.00;99.90;;;;;;5040598;28;20344;-74
2022/10/31 07:20:11;;;;;;;5.75;3.22;;;11.00;99.90;;;;;;5042225;28;20064;-73
2022/10/31 07:22:38;;;;;;;4.20;2.78;;;11.00;99.90;;;;;;5039577;28;20506;-71
2022/10/31 07:25:04;;;;;;;3.75;2.60;;;11.00;99.90;;;;;;5040742;28;20048;-73
2022/10/31 07:27:36;;;;;;;4.35;2.60;;;11.00;99.90;;;;;;5041611;28;20083;-73
2022/10/31 07:30:02;;;;;;;4.32;2.60;;;11.00;99.90;;;;;;5024019;28;20040;-73
2022/10/31 07:32:36;;;;;;;3.97;2.33;;;10.90;99.90;;;;;;5040607;28;20040;-73
2022/10/31 07:35:02;;;;;;;5.68;2.80;;;10.90;99.90;;;;;;5042663;28;20502;-74
2022/10/31 07:37:27;;;;;;;4.47;2.83;;;10.90;99.90;;;;;;5042560;28;20090;-73
2022/10/31 07:39:53;;;;;;;4.47;2.90;;;11.00;99.90;;;;;;5020881;28;20976;-74
2022/10/31 07:42:18;;;;;;;2.92;2.05;;;10.90;99.90;;;;;;5037750;28;20033;-73
2022/10/31 07:44:44;;;;;;;4.40;2.38;;;10.90;99.90;;;;;;5037815;28;20029;-74
2022/10/31 07:47:09;;;;;;;5.10;2.47;;;10.90;99.90;;;;;;5041046;28;20414;-74
2022/10/31 07:49:35;;;;;;;5.78;2.63;;;10.90;99.90;;;;;;5040120;28;20041;-74
2022/10/31 07:52:01;;;;;;;5.32;2.92;;;10.90;99.90;;;;;;5038970;28;20053;-74
2022/10/31 07:54:26;;;;;;;4.65;2.67;;;11.00;99.90;;;;;;5057559;28;20040;-74
2022/10/31 07:56:52;;;;;;;4.40;2.75;;;11.00;99.90;;;;;;5025594;28;20083;-74
2022/10/31 07:59:18;;;;;;;5.75;3.03;;;11.00;99.90;;;;;;5041985;28;20136;-74
2022/10/31 08:01:43;;;;;;;4.43;2.85;;;11.00;99.90;;;;;;5021300;28;20071;-73
2022/10/31 08:04:09;;;;;;;4.60;2.70;;;11.00;99.90;;;;;;5040447;28;20407;-74
2022/10/31 08:06:35;;;;;;;5.00;2.90;;;11.00;99.90;;;;;;5041933;28;20108;-73
2022/10/31 08:09:00;;;;;;;7.10;3.83;;;11.10;99.90;;;;;;5040232;28;20482;-73
2022/10/31 08:11:26;;;;;;;4.28;2.75;;;11.10;99.90;;;;;;5025912;28;20056;-73
2022/10/31 08:13:52;;;;;;;7.32;3.45;;;11.10;99.90;;;;;;5023875;28;20117;-73
2022/10/31 08:16:17;;;;;;;7.00;2.88;;;11.20;99.90;;;;;;5040596;28;20680;-74
2022/10/31 08:18:43;;;;;;;6.45;3.72;;;11.20;99.90;;;;;;5042034;28;20417;-74
2022/10/31 08:21:08;;;;;;;5.55;3.22;;;11.30;99.90;;;;;;5041144;28;20033;-74
2022/10/31 08:23:34;;;;;;;6.93;3.65;;;11.30;99.90;;;;;;5056578;28;20041;-74
2022/10/31 08:26:00;;;;;;;6.82;3.50;;;11.30;99.90;;;;;;5040068;28;20033;-74
2022/10/31 08:28:25;;;;;;;5.82;3.08;;;11.30;99.90;;;;;;5037836;28;20116;-73
2022/10/31 08:30:51;;;;;;;9.45;3.63;;;11.40;99.90;;;;;;5030967;28;20037;-73
2022/10/31 08:33:18;;;;;;;8.25;4.03;;;11.40;99.90;;;;;;5035697;28;20087;-73
2022/10/31 08:35:44;;;;;;;7.03;3.83;;;11.50;99.90;;;;;;5039438;28;20387;-73
2022/10/31 08:38:11;;;;;;;5.30;3.35;;;11.50;99.90;;;;;;5036886;28;20052;-73
2022/10/31 08:40:37;;;;;;;7.25;4.25;;;11.60;99.90;;;;;;5040316;28;20045;-74
2022/10/31 08:43:14;;;;;;;8.52;4.38;;;11.60;99.90;;;;;;5038230;28;20047;-74
2022/10/31 08:45:40;;;;;;;7.38;3.95;;;11.70;99.90;;;;;;5040056;28;20041;-73
2022/10/31 08:48:09;;;;;;;9.35;5.32;;;11.70;99.90;;;;;;5035505;28;20043;-73
2022/10/31 08:50:36;;;;;;;11.13;4.95;;;11.80;99.90;;;;;;5040646;28;20544;-73
2022/10/31 08:53:03;;;;;;;9.13;4.60;;;11.80;99.90;;;;;;5038435;28;20068;-73
2022/10/31 08:55:28;;;;;;;9.95;4.85;;;11.90;99.90;;;;;;5039386;28;20041;-73
2022/10/31 08:57:56;;;;;;;11.05;4.72;;;11.90;99.90;;;;;;5041361;28;20445;-73
2022/10/31 09:00:22;;;;;;;10.00;4.78;;;11.90;99.90;;;;;;5038806;28;20156;-73
2022/10/31 09:02:48;;;;;;;9.13;4.60;;;12.00;99.90;;;;;;5025219;28;20037;-73
2022/10/31 09:05:13;;;;;;;9.18;4.90;;;12.00;99.90;;;;;;5042291;28;20041;-74
2022/10/31 09:07:39;;;;;;;9.52;5.00;;;12.10;99.90;;;;;;5045490;28;20033;-74
2022/10/31 09:10:05;;;;;;;9.48;5.20;;;12.10;99.90;;;;;;5040531;28;20064;-73
2022/10/31 09:12:31;;;;;;;22.52;6.00;;;12.10;99.90;;;;;;5023795;28;20072;-73
2022/10/31 09:14:56;;;;;;;8.10;3.65;;;12.20;99.90;;;;;;5039202;28;20060;-73
2022/10/31 09:17:22;;;;;;;8.73;4.32;;;12.20;99.90;;;;;;5039551;28;20426;-73
2022/10/31 09:19:48;;;;;;;11.15;4.97;;;12.20;99.90;;;;;;5007768;28;20049;-73
2022/10/31 09:22:14;;;;;;;9.55;5.85;;;12.30;99.90;;;;;;5024527;28;20041;-73
2022/10/31 09:24:39;;;;;;;10.57;4.93;;;12.30;99.90;;;;;;5041913;28;20510;-73
2022/10/31 09:27:05;;;;;;;10.30;5.20;;;12.30;99.90;;;;;;5023980;28;20029;-72
2022/10/31 09:29:30;;;;;;;10.15;4.53;;;12.30;99.90;;;;;;5041258;28;20498;-74
2022/10/31 09:31:56;;;;;;;11.23;5.15;;;12.40;99.90;;;;;;5042067;28;20087;-73
2022/10/31 09:34:22;;;;;;;12.15;5.05;;;12.40;99.90;;;;;;5023766;28;20044;-73
2022/10/31 09:36:48;;;;;;;9.48;4.68;;;12.50;99.90;;;;;;5022882;28;20252;-73
2022/10/31 09:39:13;;;;;;;11.38;4.63;;;12.50;99.90;;;;;;5019471;28;20556;-73
2022/10/31 09:42:10;;;;;;;14.93;5.53;;;12.50;99.90;;;;;;5038390;28;20132;-73
2022/10/31 09:45:15;;;;;;;7.78;4.65;;;12.50;99.90;;;;;;5021887;28;20403;-73
2022/10/31 09:47:52;;;;;;;13.85;5.07;;;12.50;99.90;;;;;;5026914;28;20153;-74
2022/10/31 09:51:05;;;;;;;9.82;4.43;;;12.50;99.90;;;;;;5039821;28;20051;-73
2022/10/31 09:53:39;;;;;;;8.07;4.53;;;12.50;99.90;;;;;;5015186;28;20055;-73
2022/10/31 09:56:09;;;;;;;8.63;4.93;;;12.60;99.90;;;;;;5040824;28;20033;-73
2022/10/31 09:58:41;;;;;;;8.65;4.60;;;12.60;99.90;;;;;;5037658;28;20041;-73
2022/10/31 10:01:38;;;;;;;10.23;4.43;;;12.60;99.90;;;;;;5035924;28;22405;-73
2022/10/31 10:04:10;;;;;;;12.82;5.72;;;12.60;99.90;;;;;;5017507;28;20049;-73
2022/10/31 10:06:41;;;;;;;10.90;4.53;;;12.60;99.90;;;;;;5024809;28;20048;-73
2022/10/31 10:09:09;;;;;;;6.45;3.85;;;12.70;99.90;;;;;;5022943;28;20147;-73
2022/10/31 10:11:52;;;;;;;16.20;5.38;;;12.70;99.90;;;;;;5038111;28;20036;-73
2022/10/31 10:14:45;;;;;;;8.63;4.55;;;12.70;99.90;;;;;;5039291;28;20038;-73
2022/10/31 10:17:36;;;;;;;8.80;3.88;;;12.70;99.90;;;;;;5040361;28;20079;-73
2022/10/31 10:20:15;;;;;;;8.35;3.80;;;12.70;99.90;;;;;;5032194;28;20079;-73
2022/10/31 10:22:52;;;;;;;8.73;4.40;;;12.80;99.90;;;;;;5038061;28;20049;-73
2022/10/31 10:25:33;;;;;;;9.52;4.82;;;12.80;99.90;;;;;;5022478;28;20116;-74
2022/10/31 10:28:21;;;;;;;7.95;4.32;;;12.80;99.90;;;;;;5037614;28;20558;-74
2022/10/31 10:30:53;;;;;;;7.97;4.30;;;12.90;99.90;;;;;;5042197;28;20041;-73
2022/10/31 10:33:48;;;;;;;9.73;3.25;;;12.90;99.90;;;;;;5042146;28;20040;-73
2022/10/31 10:36:28;;;;;;;9.32;4.65;;;12.90;99.90;;;;;;5035394;28;20541;-73
2022/10/31 10:39:00;;;;;;;6.40;3.88;;;13.00;99.90;;;;;;5057664;28;20482;-73
2022/10/31 10:41:32;;;;;;;7.82;3.85;;;13.00;99.90;;;;;;5044633;28;20131;-73
2022/10/31 10:43:58;;;;;;;6.63;2.75;;;13.10;99.90;;;;;;5041619;28;20033;-73
2022/10/31 10:49:41;;;;;;;5.88;2.90;;;13.20;99.90;;;;;;5040799;28;20041;-73
2022/10/31 10:52:31;;;;;;;6.95;2.80;;;13.30;99.90;;;;;;5043982;28;20045;-73
2022/10/31 10:55:04;;;;;;;7.35;3.35;;;13.30;99.90;;;;;;5036192;28;20495;-73
2022/10/31 10:57:53;;;;;;;9.23;3.80;;;13.40;99.90;;;;;;5044046;28;20083;-73
2022/10/31 11:00:19;;;;;;;3.97;2.30;;;13.40;99.90;;;;;;5056837;28;20542;-72
2022/10/31 11:02:45;;;;;;;6.32;3.00;;;13.50;99.90;;;;;;5024940;28;20178;-72
2022/10/31 11:05:30;;;;;;;4.70;2.22;;;13.50;99.90;;;;;;5043069;28;20533;-72
2022/10/31 11:07:56;;;;;;;6.60;2.60;;;13.50;99.90;;;;;;5039225;28;20064;-72
2022/10/31 11:10:22;;;;;;;8.02;2.80;;;13.60;99.90;;;;;;5042269;28;20537;-73
2022/10/31 11:13:15;;;;;;;3.78;2.10;;;13.60;99.90;;;;;;5025041;28;20032;-72
2022/10/31 11:15:56;;;;;;;9.63;2.85;;;13.70;99.90;;;;;;5038504;28;20064;-72
2022/10/31 11:18:25;;;;;;;5.53;2.03;;;13.70;99.90;;;;;;5038896;28;20043;-73
2022/10/31 11:20:53;;;;;;;9.27;2.45;;;13.80;99.90;;;;;;5054825;28;20067;-74
2022/10/31 11:23:20;;;;;;;6.82;2.88;;;13.80;99.90;;;;;;5039639;28;20025;-74
2022/10/31 11:26:01;;;;;;;6.18;2.47;;;13.80;99.90;;;;;;5039207;28;20280;-73
2022/10/31 11:28:34;;;;;;;5.65;2.70;;;13.90;99.90;;;;;;5053523;28;20052;-74
2022/10/31 11:31:08;;;;;;;5.35;3.03;;;13.90;99.90;;;;;;5034571;28;20065;-70
2022/10/31 11:33:47;;;;;;;7.90;3.90;;;13.90;99.90;;;;;;5036573;28;20056;-73
2022/10/31 11:36:35;;;;;;;4.72;2.75;;;13.90;99.90;;;;;;5039175;28;20071;-73
2022/10/31 11:39:04;;;;;;;5.55;3.15;;;13.90;99.90;;;;;;5040179;28;20494;-73
2022/10/31 11:41:38;;;;;;;6.68;3.30;;;13.90;99.90;;;;;;5040291;28;20052;-73
2022/10/31 11:44:09;;;;;;;8.15;3.53;;;13.90;99.90;;;;;;5041400;28;20041;-73
2022/10/31 11:46:53;;;;;;;10.40;3.92;;;14.00;99.90;;;;;;5040382;28;20167;-73
2022/10/31 11:49:38;;;;;;;6.55;3.50;;;13.90;99.90;;;;;;5057371;28;20044;-73
2022/10/31 11:52:15;;;;;;;8.82;3.90;;;14.00;99.90;;;;;;5040930;28;20048;-73
2022/10/31 11:54:54;;;;;;;10.38;3.92;;;14.00;99.90;;;;;;5039554;28;20064;-73
2022/10/31 11:57:42;;;;;;;6.70;3.28;;;14.00;99.90;;;;;;5040291;28;20068;-73
2022/10/31 12:00:24;;;;;;;9.40;3.72;;;14.00;99.90;;;;;;5035505;28;20071;-73
2022/10/31 12:02:51;;;;;;;7.43;3.83;;;14.00;99.90;;;;;;5041126;28;20512;-73
2022/10/31 12:05:25;;;;;;;8.40;3.22;;;14.00;99.90;;;;;;5058323;28;20087;-73
2022/10/31 12:07:51;;;;;;;6.80;3.15;;;14.10;99.90;;;;;;5039454;28;20132;-74
2022/10/31 12:10:24;;;;;;;7.68;2.45;;;14.10;99.90;;;;;;5040279;28;20547;-73
2022/10/31 12:13:05;;;;;;;5.82;2.60;;;14.10;99.90;;;;;;5039496;28;20033;-74
2022/10/31 12:15:37;;;;;;;5.50;2.55;;;14.20;99.90;;;;;;5024768;28;20060;-74
2022/10/31 12:18:34;;;;;;;5.90;2.92;;;14.20;99.90;;;;;;5039667;28;20068;-74
2022/10/31 12:21:08;;;;;;;6.15;2.70;;;14.30;99.90;;;;;;5041310;28;20076;-75
2022/10/31 12:24:00;;;;;;;5.13;2.20;;;14.30;99.90;;;;;;5039116;28;20064;-74
2022/10/31 12:26:42;;;;;;;7.15;2.50;;;14.30;99.90;;;;;;5030485;28;20049;-74
2022/10/31 12:29:32;;;;;;;8.00;2.72;;;14.30;99.90;;;;;;5037240;28;20550;-75
2022/10/31 12:32:33;;;;;;;4.75;2.40;;;14.40;99.90;;;;;;5039341;28;20247;-74
2022/10/31 12:35:20;;;;;;;4.50;2.33;;;14.40;99.90;;;;;;5060792;28;20598;-74
2022/10/31 12:38:11;;;;;;;6.47;1.90;;;14.40;99.90;;;;;;5045319;28;20388;-74
2022/10/31 12:40:58;;;;;;;6.15;1.77;;;14.40;99.90;;;;;;5043662;28;20037;-73
2022/10/31 12:43:26;;;;;;;9.63;2.35;;;14.50;99.90;;;;;;5041883;28;20095;-73
2022/10/31 12:46:00;;;;;;;4.35;1.70;;;14.40;99.90;;;;;;5029234;28;20060;-73
2022/10/31 12:48:52;;;;;;;3.00;1.75;;;14.50;99.90;;;;;;5044607;28;20041;-73
2022/10/31 12:51:38;;;;;;;7.63;2.13;;;14.50;99.90;;;;;;5045546;28;20522;-73
2022/10/31 12:54:25;;;;;;;3.70;1.80;;;14.50;99.90;;;;;;5042496;28;20122;-73
2022/10/31 12:57:14;;;;;;;4.55;1.73;;;14.50;99.90;;;;;;5042022;28;20498;-72
2022/10/31 12:59:45;;;;;;;3.55;1.92;;;14.50;99.90;;;;;;5040002;28;20072;-73
2022/10/31 13:02:16;;;;;;;5.18;1.98;;;14.50;99.90;;;;;;5044976;28;20128;-73
2022/10/31 13:04:55;;;;;;;6.05;2.25;;;14.50;99.90;;;;;;5043138;28;20455;-73
2022/10/31 13:07:44;;;;;;;4.63;2.38;;;14.50;99.90;;;;;;5045774;28;20474;-73